createdAt,value
2018-11-27T00:02:23.139Z,65.44
2018-11-27T00:06:27.120Z,65.41
2018-11-27T00:10:32.501Z,65.07
2018-11-27T00:14:36.552Z,64.98
2018-11-27T00:18:40.873Z,64.60
2018-11-27T00:22:44.816Z,64.85
2018-11-27T00:26:48.824Z,64.59
2018-11-27T00:30:52.755Z,64.34
2018-11-27T00:34:56.743Z,64.68
2018-11-27T00:39:00.703Z,64.40
2018-11-27T00:43:04.993Z,64.84
2018-11-27T00:47:08.993Z,64.36
2018-11-27T00:51:13.020Z,64.62
2018-11-27T00:55:18.002Z,64.69
2018-11-27T00:59:22.048Z,64.82
2018-11-27T01:03:26.019Z,64.63
2018-11-27T01:07:30.106Z,64.54
2018-11-27T01:11:34.145Z,64.48
2018-11-27T01:15:38.188Z,64.45
2018-11-27T01:19:42.147Z,64.18
2018-11-27T01:23:46.123Z,64.35
2018-11-27T01:27:50.084Z,64.26
2018-11-27T01:31:54.127Z,64.37
2018-11-27T01:35:58.097Z,64.46
2018-11-27T01:40:02.072Z,64.55
2018-11-27T01:44:06.058Z,64.31
2018-11-27T01:48:10.044Z,64.86
2018-11-27T01:52:14.082Z,64.90
2018-11-27T01:56:18.089Z,64.79
2018-11-27T02:00:24.760Z,64.95
2018-11-27T02:04:28.818Z,64.89
2018-11-27T02:08:32.816Z,64.83
2018-11-27T02:12:37.033Z,65.13
2018-11-27T02:16:42.092Z,64.99
2018-11-27T02:20:46.080Z,65.40
2018-11-27T02:24:50.044Z,65.15
2018-11-27T02:28:54.025Z,65.28
2018-11-27T02:32:57.983Z,65.03
2018-11-27T02:37:01.916Z,65.73
2018-11-27T02:41:06.054Z,65.04
2018-11-27T02:45:11.152Z,65.18
2018-11-27T02:49:15.121Z,65.60
2018-11-27T02:53:19.125Z,66.00
2018-11-27T02:57:23.104Z,66.32
2018-11-27T03:01:27.134Z,65.79
2018-11-27T03:05:33.818Z,66.31
2018-11-27T03:09:37.992Z,66.02
2018-11-27T03:13:42.041Z,66.35
2018-11-27T03:17:46.030Z,66.31
2018-11-27T03:21:50.109Z,66.22
2018-11-27T03:25:54.081Z,66.42
2018-11-27T03:29:58.153Z,66.48
2018-11-27T03:34:02.122Z,66.73
2018-11-27T03:38:06.423Z,66.74
2018-11-27T03:42:10.409Z,66.82
2018-11-27T03:46:14.398Z,66.85
2018-11-27T03:50:21.193Z,67.08
2018-11-27T03:54:25.179Z,67.15
2018-11-27T03:58:29.198Z,66.94
2018-11-27T04:02:33.303Z,66.99
2018-11-27T04:06:37.369Z,67.08
2018-11-27T04:10:41.896Z,66.41
2018-11-27T04:14:45.871Z,66.88
2018-11-27T04:18:49.802Z,66.64
2018-11-27T04:22:53.838Z,65.89
2018-11-27T04:26:57.780Z,65.93
2018-11-27T04:31:01.725Z,66.23
2018-11-27T04:35:06.660Z,66.07
2018-11-27T04:39:10.607Z,65.96
2018-11-27T04:43:14.590Z,65.62
2018-11-27T04:47:18.632Z,65.90
2018-11-27T04:51:22.650Z,66.29
2018-11-27T04:55:26.656Z,66.24
2018-11-27T04:59:30.679Z,65.64
2018-11-27T05:03:34.708Z,66.04
2018-11-27T05:07:38.733Z,66.14
2018-11-27T05:11:43.246Z,66.19
2018-11-27T05:15:47.217Z,66.03
2018-11-27T05:19:51.225Z,66.03
2018-11-27T05:23:55.200Z,65.99
2018-11-27T05:27:59.266Z,67.01
2018-11-27T05:32:03.236Z,66.77
2018-11-27T05:36:07.269Z,66.57
2018-11-27T05:40:12.665Z,67.50
2018-11-27T05:44:16.624Z,66.49
2018-11-27T05:48:20.732Z,66.66
2018-11-27T05:52:24.776Z,66.38
2018-11-27T05:56:28.895Z,66.02
2018-11-27T06:00:32.941Z,64.66
2018-11-27T06:04:36.994Z,64.25
2018-11-27T06:08:41.016Z,63.51
2018-11-27T06:12:45.107Z,65.20
2018-11-27T06:16:49.049Z,65.81
2018-11-27T06:20:53.076Z,64.87
2018-11-27T06:24:57.086Z,65.29
2018-11-27T06:29:01.044Z,66.12
2018-11-27T06:33:05.205Z,65.79
2018-11-27T06:37:09.228Z,66.20
2018-11-27T06:41:13.234Z,66.46
2018-11-27T06:45:18.264Z,66.27
2018-11-27T06:49:22.217Z,66.46
2018-11-27T06:53:26.672Z,66.13
2018-11-27T06:57:30.720Z,66.56
2018-11-27T07:01:34.756Z,66.75
2018-11-27T07:05:39.165Z,66.91
2018-11-27T07:09:43.180Z,66.82
2018-11-27T07:13:47.204Z,66.66
2018-11-27T07:17:51.266Z,66.49
2018-11-27T07:21:55.189Z,66.42
2018-11-27T07:25:59.137Z,66.41
2018-11-27T07:30:03.233Z,66.15
2018-11-27T07:34:07.188Z,66.33
2018-11-27T07:38:11.188Z,66.73
2018-11-27T07:42:15.978Z,66.19
2018-11-27T07:46:20.035Z,66.31
2018-11-27T07:50:24.079Z,66.26
2018-11-27T07:54:28.062Z,65.92
2018-11-27T07:58:32.101Z,65.88
2018-11-27T08:02:36.165Z,65.86
2018-11-27T08:06:40.276Z,65.63
2018-11-27T08:10:45.372Z,65.63
2018-11-27T08:14:49.329Z,65.74
2018-11-27T08:18:53.332Z,66.02
2018-11-27T08:22:57.398Z,65.94
2018-11-27T08:27:01.376Z,66.18
2018-11-27T08:31:05.365Z,65.60
2018-11-27T08:35:13.815Z,65.72
2018-11-27T08:39:17.739Z,65.67
2018-11-27T08:43:21.723Z,65.35
2018-11-27T08:47:25.785Z,65.28
2018-11-27T08:51:29.825Z,65.43
2018-11-27T08:55:36.338Z,65.31
2018-11-27T08:59:40.306Z,65.35
2018-11-27T09:03:46.458Z,64.81
2018-11-27T09:07:48.841Z,64.92
2018-11-27T09:11:52.773Z,64.87
2018-11-27T09:15:56.765Z,64.46
2018-11-27T09:20:00.723Z,63.46
2018-11-27T09:24:04.729Z,62.26
2018-11-27T09:28:08.649Z,61.78
2018-11-27T09:32:12.618Z,62.91
2018-11-27T09:36:16.576Z,63.15
2018-11-27T09:40:21.309Z,62.96
2018-11-27T09:44:25.293Z,62.61
2018-11-27T09:48:29.345Z,61.71
2018-11-27T09:52:33.470Z,61.44
2018-11-27T09:56:37.512Z,61.28
2018-11-27T10:00:41.552Z,61.88
2018-11-27T10:04:45.585Z,61.54
2018-11-27T10:08:49.640Z,62.03
2018-11-27T10:12:53.661Z,61.67
2018-11-27T10:16:58.281Z,61.44
2018-11-27T10:21:02.243Z,58.74
2018-11-27T10:25:08.059Z,59.01
2018-11-27T10:29:12.022Z,60.25
2018-11-27T10:33:15.976Z,59.32
2018-11-27T10:37:19.925Z,58.66
2018-11-27T10:41:23.870Z,58.33
2018-11-27T10:45:27.857Z,58.51
2018-11-27T10:49:31.869Z,58.45
2018-11-27T10:53:35.905Z,59.41
2018-11-27T10:57:39.982Z,58.26
2018-11-27T11:01:49.152Z,60.09
2018-11-27T11:05:54.244Z,59.52
2018-11-27T11:09:58.199Z,59.07
2018-11-27T11:14:02.260Z,58.12
2018-11-27T11:18:06.247Z,59.37
2018-11-27T11:22:10.185Z,59.00
2018-11-27T11:26:14.169Z,60.12
2018-11-27T11:30:19.248Z,59.67
2018-11-27T11:34:23.242Z,58.88
2018-11-27T11:38:27.292Z,59.29
2018-11-27T11:42:31.294Z,60.03
2018-11-27T11:46:35.319Z,59.98
2018-11-27T11:50:39.339Z,59.68
2018-11-27T11:54:43.391Z,59.63
2018-11-27T11:58:47.417Z,59.57
2018-11-27T12:02:51.457Z,60.18
2018-11-27T12:06:55.459Z,60.80
2018-11-27T12:10:59.451Z,59.63
2018-11-27T12:15:03.464Z,58.73
2018-11-27T12:19:08.489Z,59.37
2018-11-27T12:23:12.820Z,58.84
2018-11-27T12:27:16.827Z,57.71
2018-11-27T12:31:20.802Z,58.50
2018-11-27T12:35:25.164Z,58.23
2018-11-27T12:39:29.165Z,57.00
2018-11-27T12:43:33.159Z,56.67
2018-11-27T12:47:37.217Z,55.13
2018-11-27T12:51:41.252Z,54.84
2018-11-27T12:55:46.714Z,55.30
2018-11-27T12:59:50.746Z,54.82
2018-11-27T13:03:54.776Z,55.71
2018-11-27T13:08:00.536Z,56.06
2018-11-27T13:12:04.537Z,54.26
2018-11-27T13:16:08.491Z,52.72
2018-11-27T13:20:13.617Z,53.54
2018-11-27T13:24:17.604Z,53.93
2018-11-27T13:28:21.624Z,54.41
2018-11-27T13:32:25.604Z,55.12
2018-11-27T13:36:29.571Z,55.38
2018-11-27T13:40:33.552Z,55.04
2018-11-27T13:44:37.543Z,55.30
2018-11-27T13:48:41.549Z,55.87
2018-11-27T13:52:45.647Z,56.33
2018-11-27T13:56:49.606Z,56.50
2018-11-27T14:00:53.631Z,55.92
2018-11-27T14:04:57.636Z,55.34
2018-11-27T14:09:01.738Z,56.09
2018-11-27T14:13:06.853Z,55.93
2018-11-27T14:17:10.792Z,56.38
2018-11-27T14:21:14.902Z,55.13
2018-11-27T14:25:18.878Z,55.30
2018-11-27T14:29:22.935Z,55.48
2018-11-27T14:33:27.002Z,55.01
2018-11-27T14:37:31.088Z,55.42
2018-11-27T14:41:35.051Z,55.65
2018-11-27T14:45:39.069Z,55.09
2018-11-27T14:49:43.086Z,54.81
2018-11-27T14:53:47.161Z,54.93
2018-11-27T14:57:51.213Z,54.20
2018-11-27T15:01:55.200Z,55.56
2018-11-27T15:05:59.228Z,56.00
2018-11-27T15:10:03.441Z,56.25
2018-11-27T15:14:07.535Z,57.91
2018-11-27T15:18:11.551Z,58.64
2018-11-27T15:22:15.510Z,59.50
2018-11-27T15:26:19.461Z,59.14
2018-11-27T15:30:24.499Z,58.87
2018-11-27T15:34:28.481Z,58.56
2018-11-27T15:45:09.434Z,58.69
2018-11-27T15:49:13.433Z,58.11
2018-11-27T15:53:17.366Z,58.75
2018-11-27T15:57:21.392Z,59.01
2018-11-27T16:01:25.482Z,57.90
2018-11-27T16:05:29.616Z,58.02
2018-11-27T16:09:33.657Z,58.10
2018-11-27T16:13:37.650Z,57.91
2018-11-27T16:17:41.725Z,57.91
2018-11-27T16:21:45.704Z,57.54
2018-11-27T16:25:49.795Z,58.57
2018-11-27T16:29:53.781Z,57.85
2018-11-27T16:33:57.839Z,58.38
2018-11-27T16:38:01.819Z,58.12
2018-11-27T16:42:06.266Z,58.83
2018-11-27T16:46:10.303Z,59.20
2018-11-27T16:50:15.191Z,59.10
2018-11-27T16:54:19.139Z,58.27
2018-11-27T16:58:23.169Z,58.42
2018-11-27T17:02:27.201Z,58.60
2018-11-27T17:06:31.244Z,58.91
2018-11-27T17:10:35.283Z,59.04
2018-11-27T17:14:39.368Z,58.69
2018-11-27T17:18:43.396Z,59.04
2018-11-27T17:22:47.584Z,58.65
2018-11-27T17:26:51.558Z,59.36
2018-11-27T17:31:12.809Z,58.88
2018-11-27T17:35:16.859Z,59.39
2018-11-27T17:39:21.146Z,59.66
2018-11-27T17:43:25.321Z,59.20
2018-11-27T17:47:29.392Z,59.24
2018-11-27T17:51:33.376Z,59.66
2018-11-27T17:55:37.356Z,59.56
2018-11-27T17:59:41.479Z,59.63
2018-11-27T18:03:45.588Z,59.33
2018-11-27T18:07:49.600Z,59.13
2018-11-27T18:11:53.666Z,59.32
2018-11-27T18:15:57.913Z,59.33
2018-11-27T18:20:01.952Z,59.35
2018-11-27T18:24:06.112Z,59.60
2018-11-27T18:28:10.102Z,59.68
2018-11-27T18:32:14.156Z,59.54
2018-11-27T18:36:18.187Z,59.25
2018-11-27T18:40:22.532Z,59.78
2018-11-27T18:44:26.589Z,59.78
2018-11-27T18:48:30.652Z,60.20
2018-11-27T18:52:34.707Z,60.77
2018-11-27T18:56:38.866Z,61.39
2018-11-27T19:00:42.910Z,61.09
2018-11-27T19:06:11.430Z,61.72
2018-11-27T19:11:22.217Z,61.75
2018-11-27T19:15:32.603Z,61.38
2018-11-27T19:19:36.684Z,60.88
2018-11-27T19:23:40.789Z,60.40
2018-11-27T19:27:44.873Z,60.48
2018-11-27T19:31:48.792Z,60.29
2018-11-27T19:35:52.816Z,60.11
2018-11-27T19:39:58.061Z,60.26
2018-11-27T19:44:02.030Z,60.61
2018-11-27T19:48:07.523Z,60.36
2018-11-27T19:52:11.552Z,59.91
2018-11-27T19:56:16.344Z,60.08
2018-11-27T20:00:22.545Z,60.01
2018-11-27T20:04:26.669Z,60.04
2018-11-27T20:08:30.747Z,59.96
2018-11-27T20:12:34.752Z,60.04
2018-11-27T20:16:39.637Z,60.04
2018-11-27T20:20:43.816Z,60.35
2018-11-27T20:24:48.269Z,59.75
2018-11-27T20:28:52.417Z,60.01
2018-11-27T20:32:59.795Z,60.62
2018-11-27T20:37:03.982Z,60.31
2018-11-27T20:41:08.035Z,61.00
2018-11-27T20:45:20.026Z,61.12
2018-11-27T20:49:24.717Z,60.99
2018-11-27T20:53:28.833Z,60.77
2018-11-27T20:57:33.081Z,60.93
2018-11-27T21:01:37.248Z,61.08
2018-11-27T21:05:41.529Z,60.84
2018-11-27T21:09:45.753Z,60.95
2018-11-27T21:13:49.911Z,60.77
2018-11-27T21:17:54.070Z,60.76
2018-11-27T21:21:58.124Z,60.85
2018-11-27T21:26:05.120Z,60.69
2018-11-27T21:30:11.167Z,61.24
2018-11-27T21:34:15.270Z,60.81
2018-11-27T21:38:19.356Z,60.57
2018-11-27T21:42:23.478Z,60.76
2018-11-27T21:46:27.501Z,60.64
2018-11-27T21:50:36.811Z,60.91
2018-11-27T21:54:40.910Z,60.94
2018-11-27T21:58:44.884Z,60.81
2018-11-27T22:02:49.129Z,60.83
2018-11-27T22:06:53.250Z,60.65
2018-11-27T22:10:57.416Z,60.59
2018-11-27T22:15:02.598Z,60.46
2018-11-27T22:19:06.756Z,60.56
2018-11-27T22:23:10.976Z,60.82
2018-11-27T22:27:15.092Z,60.46
2018-11-27T22:31:19.186Z,60.80
2018-11-27T22:35:23.397Z,60.26
2018-11-27T22:39:27.382Z,60.34
2018-11-27T22:43:31.492Z,60.21
2018-11-27T22:47:35.628Z,60.14
2018-11-27T22:51:39.673Z,60.01
2018-11-27T22:55:43.765Z,60.20
2018-11-27T22:59:47.868Z,60.77
2018-11-27T23:03:51.932Z,60.54
2018-11-27T23:07:56.025Z,60.92
2018-11-27T23:12:00.132Z,60.99
2018-11-27T23:16:04.224Z,60.61
2018-11-27T23:20:15.682Z,60.95
2018-11-27T23:24:19.739Z,60.71
2018-11-27T23:28:23.790Z,60.65
2018-11-27T23:32:27.786Z,60.93
2018-11-27T23:36:31.853Z,60.91
2018-11-27T23:40:35.846Z,60.83
2018-11-27T23:44:39.888Z,60.88
2018-11-27T23:48:44.006Z,60.73
2018-11-27T23:52:48.162Z,60.63
2018-11-27T23:56:52.255Z,60.29
